Time;durP1;ratioP1;P1;durP2;ratioP2;P2;SDS_P1;SDS_P2;PMS_P1;PMS_P2;Temp;Humidity;BMP_temperature;BMP_pressure;BME280_temperature;BME280_humidity;BME280_pressure;Samples;Min_cycle;Max_cycle;Signal;HPM_P1;HPM_P2
2022/06/30 00:00:09;;;;;;;9.50;5.53;;;;;;;20.92;59.71;95444.00;5005050;28;20030;-82
2022/06/30 00:02:35;;;;;;;6.10;4.80;;;;;;;20.92;59.84;95436.66;5003425;28;20057;-81
2022/06/30 00:05:00;;;;;;;6.97;4.90;;;;;;;20.93;59.63;95438.31;5004091;28;20038;-81
2022/06/30 00:07:26;;;;;;;6.55;5.03;;;;;;;20.92;59.34;95442.13;5003132;28;20056;-82
2022/06/30 00:09:51;;;;;;;5.95;4.93;;;;;;;20.80;59.44;95442.13;5004693;28;20026;-84
2022/06/30 00:12:17;;;;;;;6.65;5.25;;;;;;;20.72;59.75;95442.50;5003460;28;20033;-83
2022/06/30 00:14:42;;;;;;;6.22;5.40;;;;;;;20.70;59.62;95442.72;4972008;28;20034;-82
2022/06/30 00:17:08;;;;;;;10.30;5.05;;;;;;;20.69;59.55;95448.41;5003269;28;20029;-82
2022/06/30 00:19:33;;;;;;;8.80;4.97;;;;;;;20.70;60.05;95450.09;5004041;28;20473;-82
2022/06/30 00:21:59;;;;;;;8.00;5.40;;;;;;;20.66;59.50;95440.72;5005327;28;20455;-82
2022/06/30 00:24:24;;;;;;;8.07;4.95;;;;;;;20.61;59.45;95439.56;5003590;28;20068;-82
2022/06/30 00:26:50;;;;;;;6.35;5.28;;;;;;;20.56;60.07;95449.50;5005524;28;20389;-82
2022/06/30 00:29:15;;;;;;;6.47;5.00;;;;;;;20.52;60.21;95441.03;5003013;28;20045;-82
2022/06/30 00:31:41;;;;;;;7.68;5.30;;;;;;;20.45;60.31;95432.13;4961489;28;1248468;-82
2022/06/30 00:34:06;;;;;;;6.25;5.32;;;;;;;20.38;60.16;95427.66;5003502;28;20030;-82
2022/06/30 00:36:31;;;;;;;8.77;4.97;;;;;;;20.41;60.41;95426.34;5005117;28;20041;-81
2022/06/30 00:38:57;;;;;;;10.05;5.50;;;;;;;20.34;61.13;95421.03;5005659;28;20022;-81
2022/06/30 00:41:22;;;;;;;10.65;5.32;;;;;;;20.37;60.76;95431.44;5004718;28;20045;-81
2022/06/30 00:43:48;;;;;;;11.73;5.65;;;;;;;20.30;60.71;95428.00;4988302;28;20029;-80
2022/06/30 00:46:14;;;;;;;5.93;5.20;;;;;;;20.33;60.53;95427.53;5003811;28;20030;-82
2022/06/30 00:48:40;;;;;;;11.90;5.93;;;;;;;20.33;60.61;95426.72;4988817;28;20053;-82
2022/06/30 00:51:06;;;;;;;6.68;5.25;;;;;;;20.30;60.57;95430.75;4987648;28;20091;-81
2022/06/30 00:53:34;;;;;;;8.55;5.60;;;;;;;20.34;60.39;95425.66;4989176;28;20136;-81
2022/06/30 00:56:01;;;;;;;10.50;6.05;;;;;;;20.34;60.24;95429.22;5008554;28;20429;-81
2022/06/30 00:58:27;;;;;;;8.25;5.57;;;;;;;20.33;60.26;95437.63;4992106;28;20034;-81
2022/06/30 01:00:52;;;;;;;7.60;5.60;;;;;;;20.31;60.60;95432.41;4991608;28;20026;-81
2022/06/30 01:03:17;;;;;;;8.07;5.53;;;;;;;20.25;60.91;95420.56;5007815;28;20029;-81
2022/06/30 01:05:43;;;;;;;10.02;5.50;;;;;;;20.18;61.44;95416.31;4991772;28;20030;-81
2022/06/30 01:08:08;;;;;;;8.32;6.03;;;;;;;20.21;61.22;95416.69;4991029;28;20378;-81
2022/06/30 01:13:18;;;;;;;8.48;5.45;;;;;;;20.15;61.28;95416.78;5007347;28;20197;-82
2022/06/30 01:15:43;;;;;;;9.82;5.72;;;;;;;20.12;61.05;95416.19;5009666;28;20030;-82
2022/06/30 01:18:08;;;;;;;6.78;5.57;;;;;;;20.09;61.59;95424.00;5008585;28;20030;-81
2022/06/30 01:20:34;;;;;;;7.30;5.65;;;;;;;20.08;62.09;95419.63;5008932;28;20030;-82
2022/06/30 01:23:01;;;;;;;9.65;5.65;;;;;;;20.05;61.93;95415.50;5007718;28;20439;-82
2022/06/30 01:25:27;;;;;;;8.50;5.47;;;;;;;20.00;61.83;95413.47;4991035;28;20036;-81
2022/06/30 01:27:53;;;;;;;8.55;5.57;;;;;;;19.92;62.07;95416.53;4991278;28;20034;-82
2022/06/30 01:30:19;;;;;;;7.45;5.32;;;;;;;19.84;62.46;95419.63;4990154;28;20165;-82
2022/06/30 01:32:44;;;;;;;8.63;5.93;;;;;;;19.81;62.36;95417.38;5008172;28;20113;-82
2022/06/30 01:35:10;;;;;;;8.05;6.15;;;;;;;19.79;62.16;95414.88;5007887;28;20026;-81
2022/06/30 01:37:58;;;;;;;10.75;6.47;;;;;;;19.77;62.01;95420.56;5008881;28;20037;-81
2022/06/30 01:40:25;;;;;;;7.82;5.65;;;;;;;19.74;62.44;95412.88;4991981;28;20083;-82
2022/06/30 01:42:50;;;;;;;13.32;5.90;;;;;;;19.76;62.84;95418.09;5007000;28;20061;-81
2022/06/30 01:45:16;;;;;;;6.75;5.70;;;;;;;19.73;63.06;95419.38;5008712;28;20543;-82
2022/06/30 01:47:41;;;;;;;6.35;5.53;;;;;;;19.72;63.41;95427.75;5007584;28;20105;-81
2022/06/30 01:50:12;;;;;;;8.65;6.28;;;;;;;19.70;63.40;95422.56;4991250;28;20034;-81
2022/06/30 01:52:38;;;;;;;10.40;6.30;;;;;;;19.61;63.22;95422.09;4990249;28;20036;-81
2022/06/30 01:55:04;;;;;;;7.78;5.80;;;;;;;19.60;62.90;95423.13;5007528;28;20026;-81
2022/06/30 01:57:29;;;;;;;10.05;6.22;;;;;;;19.58;62.65;95419.00;4990260;28;20072;-81
2022/06/30 01:59:55;;;;;;;10.02;6.15;;;;;;;19.57;63.11;95420.88;4990977;28;20021;-81
2022/06/30 02:02:20;;;;;;;8.07;5.70;;;;;;;19.59;63.66;95426.09;5008734;28;20033;-81
2022/06/30 02:04:50;;;;;;;9.80;6.05;;;;;;;19.57;63.80;95429.03;5005910;28;20041;-81
2022/06/30 02:07:16;;;;;;;11.20;6.10;;;;;;;19.55;63.90;95420.31;5008217;28;20026;-81
2022/06/30 02:09:42;;;;;;;8.55;5.82;;;;;;;19.56;64.14;95421.13;4989650;28;20536;-81
2022/06/30 02:14:52;;;;;;;8.13;5.63;;;;;;;19.50;63.54;95412.03;5006263;28;20044;-81
2022/06/30 02:17:17;;;;;;;8.02;5.90;;;;;;;19.45;63.26;95422.75;5006770;28;20034;-82
2022/06/30 02:19:42;;;;;;;9.07;6.47;;;;;;;19.42;63.04;95424.06;5006173;28;20034;-82
2022/06/30 02:22:08;;;;;;;13.85;6.28;;;;;;;19.42;63.13;95425.94;5005902;28;20030;-83
2022/06/30 02:24:33;;;;;;;7.30;5.95;;;;;;;19.40;62.67;95415.31;4974247;28;20064;-82
2022/06/30 02:26:59;;;;;;;8.23;5.55;;;;;;;19.42;62.82;95423.22;5007164;28;20080;-82
2022/06/30 02:29:24;;;;;;;8.73;5.82;;;;;;;19.42;62.30;95423.22;4990597;28;20022;-82
2022/06/30 02:31:50;;;;;;;7.28;5.80;;;;;;;19.41;62.21;95425.13;5005046;28;20104;-83
2022/06/30 02:34:15;;;;;;;11.52;5.80;;;;;;;19.43;61.95;95430.31;5007969;28;20057;-83
2022/06/30 02:36:40;;;;;;;8.95;5.88;;;;;;;19.37;62.39;95432.09;5006897;28;20033;-82
2022/06/30 02:39:06;;;;;;;9.85;5.95;;;;;;;19.33;62.42;95425.47;5022460;28;20041;-82
2022/06/30 02:41:31;;;;;;;7.50;5.28;;;;;;;19.27;62.54;95425.34;5006378;28;20029;-82
2022/06/30 02:43:58;;;;;;;11.68;5.80;;;;;;;19.27;62.45;95433.50;5006401;28;20038;-81
2022/06/30 02:46:24;;;;;;;8.50;5.75;;;;;;;19.27;63.18;95432.66;5006404;28;20029;-82
2022/06/30 02:48:49;;;;;;;8.32;5.63;;;;;;;19.24;62.73;95435.84;5004890;28;20137;-82
2022/06/30 02:51:15;;;;;;;10.63;6.20;;;;;;;19.12;62.51;95433.91;5006472;28;20129;-82
2022/06/30 02:53:40;;;;;;;8.50;6.10;;;;;;;19.06;62.73;95434.81;5005186;28;20440;-81
2022/06/30 02:56:05;;;;;;;8.57;6.35;;;;;;;19.07;62.78;95433.75;5005953;28;20056;-82
2022/06/30 02:58:31;;;;;;;8.40;5.75;;;;;;;19.06;62.55;95432.09;5006914;28;20037;-81
2022/06/30 03:00:56;;;;;;;8.63;5.93;;;;;;;19.09;62.73;95434.38;4972795;28;20018;-81
2022/06/30 03:03:22;;;;;;;8.27;6.32;;;;;;;19.10;62.69;95436.03;5006352;28;20500;-81
2022/06/30 03:05:47;;;;;;;12.18;6.38;;;;;;;18.96;63.09;95429.94;5004666;28;20416;-82
2022/06/30 03:08:13;;;;;;;8.55;6.28;;;;;;;19.03;63.22;95427.13;5006223;28;20443;-82
2022/06/30 03:10:38;;;;;;;8.90;5.93;;;;;;;19.03;63.13;95430.69;5004893;28;20052;-82
2022/06/30 03:13:03;;;;;;;11.75;6.00;;;;;;;19.11;62.99;95421.41;4989861;28;20033;-82
2022/06/30 03:15:29;;;;;;;10.57;6.40;;;;;;;19.12;62.66;95423.03;5006250;28;20029;-82
2022/06/30 03:17:56;;;;;;;6.28;5.63;;;;;;;19.11;62.62;95421.41;5006611;28;20468;-81
2022/06/30 03:20:22;;;;;;;8.40;6.35;;;;;;;19.09;62.67;95418.06;5005694;28;20037;-81
2022/06/30 03:22:48;;;;;;;10.10;6.38;;;;;;;19.13;62.74;95423.88;4988787;28;20066;-82
2022/06/30 03:25:13;;;;;;;9.98;6.85;;;;;;;19.03;63.34;95427.13;5006991;28;20030;-81
2022/06/30 03:27:39;;;;;;;9.68;6.05;;;;;;;19.10;63.55;95425.16;4988280;28;20030;-81
2022/06/30 03:30:05;;;;;;;7.10;6.32;;;;;;;19.15;63.17;95436.16;5007305;28;20026;-82
2022/06/30 03:32:30;;;;;;;12.30;6.55;;;;;;;19.18;62.32;95428.63;5005633;28;20046;-81
2022/06/30 03:34:55;;;;;;;14.60;6.38;;;;;;;19.17;62.54;95435.13;5005624;28;20026;-82
2022/06/30 03:37:21;;;;;;;9.52;6.82;;;;;;;19.17;62.48;95430.50;5005015;28;20076;-83
2022/06/30 03:39:46;;;;;;;10.27;7.07;;;;;;;19.11;62.51;95432.25;5005041;28;20041;-81
2022/06/30 03:42:12;;;;;;;11.68;6.78;;;;;;;19.12;62.40;95431.19;5004997;28;20030;-83
2022/06/30 03:44:37;;;;;;;9.63;6.95;;;;;;;19.14;62.70;95431.81;5006188;28;20022;-81
2022/06/30 03:47:03;;;;;;;7.38;6.50;;;;;;;19.18;62.90;95434.91;5006448;28;20088;-81
2022/06/30 03:49:29;;;;;;;8.75;6.40;;;;;;;19.19;62.26;95428.38;5004247;28;20053;-82
2022/06/30 03:51:54;;;;;;;8.65;6.65;;;;;;;19.27;62.73;95438.09;4973509;28;20029;-81
2022/06/30 03:54:19;;;;;;;13.30;7.43;;;;;;;19.23;62.67;95434.19;5004079;28;20106;-82
2022/06/30 03:56:45;;;;;;;7.35;6.60;;;;;;;19.32;63.08;95430.06;5006708;28;20033;-82
2022/06/30 03:59:10;;;;;;;9.43;7.38;;;;;;;19.37;63.05;95438.38;5005878;28;20033;-83
2022/06/30 04:01:36;;;;;;;7.68;6.88;;;;;;;19.43;62.94;95438.47;4988330;28;20092;-82
2022/06/30 04:04:01;;;;;;;10.38;7.20;;;;;;;19.50;62.84;95444.66;4972876;28;20037;-82
2022/06/30 04:06:27;;;;;;;11.02;7.32;;;;;;;19.58;62.60;95443.47;5004658;28;20021;-82
2022/06/30 04:08:52;;;;;;;8.23;7.20;;;;;;;19.66;62.09;95439.59;4989004;28;20080;-83
2022/06/30 04:11:18;;;;;;;12.43;7.43;;;;;;;19.69;62.73;95439.94;5007068;28;20471;-81
2022/06/30 04:13:43;;;;;;;9.05;7.43;;;;;;;19.74;62.24;95436.53;4989488;28;20036;-81
2022/06/30 04:16:09;;;;;;;9.05;7.82;;;;;;;19.72;62.50;95435.91;5004226;28;20026;-81
2022/06/30 04:18:34;;;;;;;10.52;7.45;;;;;;;19.81;62.22;95445.41;5006378;28;20404;-81
2022/06/30 04:21:00;;;;;;;13.05;7.30;;;;;;;19.76;62.43;95439.84;5004986;28;20493;-82
2022/06/30 04:23:25;;;;;;;8.07;6.65;;;;;;;19.88;62.64;95440.69;5005679;28;20033;-82
2022/06/30 04:25:50;;;;;;;11.45;7.95;;;;;;;19.98;62.21;95444.69;5005679;28;20029;-82
2022/06/30 04:28:16;;;;;;;11.50;8.40;;;;;;;20.12;61.69;95450.75;5020283;28;20026;-83
2022/06/30 04:33:25;;;;;;;12.68;8.15;;;;;;;20.35;60.49;95449.91;5008099;28;20084;-82
2022/06/30 04:35:51;;;;;;;12.40;8.55;;;;;;;20.46;60.03;95450.13;5008895;28;20025;-81
2022/06/30 04:38:16;;;;;;;12.93;7.80;;;;;;;20.59;59.91;95455.31;4991551;28;20033;-83
2022/06/30 04:43:26;;;;;;;12.32;7.75;;;;;;;20.87;59.04;95456.44;5008890;28;20028;-82
2022/06/30 04:45:51;;;;;;;12.60;7.82;;;;;;;20.99;58.74;95455.56;5007475;28;20018;-82
2022/06/30 04:48:16;;;;;;;11.35;7.38;;;;;;;21.05;57.92;95453.78;4992610;28;20088;-83
2022/06/30 04:50:42;;;;;;;11.70;7.32;;;;;;;21.10;57.74;95449.25;5008813;28;20450;-82
2022/06/30 04:53:07;;;;;;;9.50;6.30;;;;;;;21.25;57.20;95458.78;4992350;28;20397;-83
2022/06/30 04:55:33;;;;;;;8.77;6.30;;;;;;;21.36;56.83;95447.00;5009210;28;20034;-83
2022/06/30 04:57:58;;;;;;;8.60;5.82;;;;;;;21.47;56.45;95452.66;5008488;28;20028;-84
2022/06/30 05:00:24;;;;;;;9.90;6.40;;;;;;;21.59;56.26;95453.41;5024704;28;20030;-82
2022/06/30 05:02:49;;;;;;;8.18;5.70;;;;;;;21.72;55.87;95448.69;5007737;28;20033;-83
2022/06/30 05:05:15;;;;;;;10.95;7.22;;;;;;;21.77;56.22;95445.22;5008633;28;20033;-82
2022/06/30 05:07:40;;;;;;;10.90;6.65;;;;;;;21.78;56.47;95447.72;5008262;28;20488;-83
2022/06/30 05:10:06;;;;;;;12.95;7.07;;;;;;;21.85;55.88;95448.41;5009914;28;20369;-82
2022/06/30 05:12:31;;;;;;;8.30;6.10;;;;;;;21.98;56.87;95452.69;5007361;28;20028;-84
2022/06/30 05:14:58;;;;;;;8.27;6.45;;;;;;;22.12;56.18;95446.06;4991601;28;20030;-83
2022/06/30 05:17:25;;;;;;;9.13;6.57;;;;;;;22.16;56.65;95452.66;5007992;28;20041;-82
2022/06/30 05:19:50;;;;;;;9.48;6.68;;;;;;;22.29;55.52;95457.78;5007556;28;20033;-83
2022/06/30 05:22:16;;;;;;;11.60;6.68;;;;;;;22.33;55.40;95453.47;5008160;28;20040;-82
2022/06/30 05:27:25;;;;;;;13.55;6.63;;;;;;;22.53;56.16;95460.28;5009557;28;20033;-82
2022/06/30 05:29:51;;;;;;;11.43;7.30;;;;;;;22.64;55.22;95453.06;5007080;28;20014;-83
2022/06/30 05:32:16;;;;;;;14.20;7.53;;;;;;;22.81;54.74;95463.13;5008755;28;20116;-83
2022/06/30 05:34:42;;;;;;;9.93;6.82;;;;;;;22.83;54.78;95460.94;4990822;28;20040;-83
2022/06/30 05:37:07;;;;;;;11.90;6.85;;;;;;;22.93;54.98;95466.56;5007206;28;20041;-83
2022/06/30 05:39:33;;;;;;;20.77;7.90;;;;;;;23.01;53.70;95467.16;5007584;28;20026;-82
2022/06/30 05:42:01;;;;;;;14.38;7.32;;;;;;;22.94;54.38;95465.47;5006325;28;20480;-84
2022/06/30 05:44:28;;;;;;;17.02;6.68;;;;;;;22.97;53.36;95466.88;5009163;28;20072;-83
2022/06/30 05:46:54;;;;;;;14.30;7.60;;;;;;;22.99;53.67;95470.16;4989951;28;20038;-83
2022/06/30 05:49:22;;;;;;;22.30;8.68;;;;;;;23.14;53.53;95464.06;5009083;28;20026;-83
2022/06/30 05:51:48;;;;;;;18.65;7.28;;;;;;;23.34;53.85;95471.63;5006734;28;20029;-83
2022/06/30 05:54:13;;;;;;;15.43;7.20;;;;;;;23.51;53.56;95469.91;5006944;28;20034;-82
2022/06/30 05:56:39;;;;;;;17.65;6.63;;;;;;;23.53;52.91;95471.31;5007567;28;20444;-83
2022/06/30 05:59:04;;;;;;;15.07;6.50;;;;;;;23.60;51.86;95473.84;5008184;28;20026;-84
2022/06/30 06:01:30;;;;;;;19.63;7.20;;;;;;;23.60;52.19;95475.75;5008384;28;20022;-85
2022/06/30 06:03:55;;;;;;;22.95;6.95;;;;;;;23.60;52.14;95473.84;5006949;28;20060;-85
2022/06/30 06:06:21;;;;;;;16.80;7.28;;;;;;;23.59;52.24;95477.66;5008414;28;20033;-82
2022/06/30 06:08:46;;;;;;;19.40;6.70;;;;;;;23.65;52.28;95476.63;5008277;28;20057;-84
2022/06/30 06:11:11;;;;;;;35.40;8.80;;;;;;;23.81;52.47;95480.31;5009394;28;20030;-83
2022/06/30 06:13:37;;;;;;;20.58;7.50;;;;;;;23.84;52.65;95479.00;5007729;28;20113;-84
2022/06/30 06:16:03;;;;;;;12.23;7.13;;;;;;;23.77;52.88;95478.38;5006793;28;20030;-83
2022/06/30 06:18:28;;;;;;;9.23;6.00;;;;;;;23.70;53.51;95479.41;5008480;28;20167;-81
2022/06/30 06:20:53;;;;;;;8.48;5.80;;;;;;;23.72;53.08;95476.41;4989327;28;20447;-82
2022/06/30 06:23:19;;;;;;;10.48;6.05;;;;;;;23.80;52.57;95486.06;5008756;28;20401;-83
2022/06/30 06:25:44;;;;;;;8.45;5.60;;;;;;;23.82;52.42;95486.63;5005607;28;20451;-85
2022/06/30 06:31:14;;;;;;;7.82;5.38;;;;;;;24.10;51.41;95486.56;4983193;28;20158;-84
2022/06/30 06:33:39;;;;;;;8.18;5.55;;;;;;;24.24;51.26;95481.50;4972229;28;20552;-84
2022/06/30 06:36:05;;;;;;;10.52;5.53;;;;;;;24.20;50.30;95478.44;4989930;28;20045;-83
2022/06/30 06:38:30;;;;;;;6.57;5.63;;;;;;;24.19;50.37;95474.91;5005695;28;20628;-82
2022/06/30 06:40:56;;;;;;;11.15;5.53;;;;;;;24.34;50.56;95469.78;5008018;28;20034;-83
2022/06/30 06:43:21;;;;;;;10.02;6.75;;;;;;;24.18;50.66;95464.22;5005383;28;20033;-83
2022/06/30 06:45:46;;;;;;;11.90;5.93;;;;;;;24.35;50.47;95471.41;5006527;28;20037;-82
2022/06/30 06:48:12;;;;;;;12.52;6.03;;;;;;;24.53;50.51;95461.94;5005907;28;20045;-82
2022/06/30 06:50:37;;;;;;;9.45;5.68;;;;;;;24.34;50.26;95459.66;5006065;28;20026;-82
2022/06/30 06:53:03;;;;;;;11.15;6.30;;;;;;;24.20;50.32;95462.00;5005800;28;20464;-82
2022/06/30 06:55:29;;;;;;;9.63;5.40;;;;;;;24.31;50.59;95458.25;5005372;28;20030;-83
2022/06/30 06:57:55;;;;;;;9.30;5.80;;;;;;;24.70;51.57;95459.00;5007835;28;20454;-83
2022/06/30 07:00:20;;;;;;;9.32;5.63;;;;;;;24.82;51.23;95458.78;5005265;28;20030;-83
2022/06/30 07:02:46;;;;;;;14.45;6.63;;;;;;;24.95;50.42;95460.25;5006609;28;20201;-82
2022/06/30 07:05:11;;;;;;;19.63;6.57;;;;;;;24.73;49.77;95455.72;4989078;28;20137;-84
2022/06/30 07:07:37;;;;;;;23.40;6.88;;;;;;;24.60;48.77;95445.25;5007248;28;20030;-83
2022/06/30 07:10:06;;;;;;;24.90;7.55;;;;;;;24.64;48.60;95451.84;5005835;28;20030;-84
2022/06/30 07:12:32;;;;;;;14.80;7.18;;;;;;;24.49;49.21;95449.88;4972605;28;20029;-84
2022/06/30 07:14:58;;;;;;;21.60;6.70;;;;;;;24.59;48.55;95454.56;4989813;28;20026;-84
2022/06/30 07:17:23;;;;;;;17.10;6.55;;;;;;;24.80;48.51;95450.00;5005954;28;20051;-83
2022/06/30 07:19:49;;;;;;;6.22;4.65;;;;;;;25.23;43.46;95452.63;4992747;28;20026;-84
2022/06/30 07:22:16;;;;;;;7.43;4.60;;;;;;;25.26;44.26;95445.78;5006802;28;20026;-84
2022/06/30 07:24:42;;;;;;;7.80;5.07;;;;;;;25.28;44.80;95441.69;5006230;28;20026;-83
2022/06/30 07:27:07;;;;;;;7.32;5.20;;;;;;;25.47;46.65;95438.41;5005030;28;20056;-84
2022/06/30 07:29:33;;;;;;;7.72;5.20;;;;;;;25.67;46.34;95439.56;5005224;28;20076;-85
2022/06/30 07:31:58;;;;;;;11.88;5.43;;;;;;;25.77;45.97;95436.81;5006939;28;20041;-82
2022/06/30 07:34:24;;;;;;;9.07;5.32;;;;;;;25.93;45.39;95447.81;5004635;28;20030;-83
2022/06/30 07:36:50;;;;;;;12.43;5.88;;;;;;;26.04;45.33;95449.44;5005849;28;20038;-83
2022/06/30 07:39:15;;;;;;;8.55;5.43;;;;;;;26.18;45.54;95443.41;4987663;28;20026;-83
2022/06/30 07:41:41;;;;;;;10.05;5.53;;;;;;;26.34;46.27;95444.22;5005777;28;20029;-83
2022/06/30 07:44:06;;;;;;;7.88;5.20;;;;;;;26.44;45.59;95443.34;4988122;28;20026;-84
2022/06/30 07:46:32;;;;;;;7.88;5.57;;;;;;;26.37;45.22;95440.91;5006587;28;20036;-84
2022/06/30 07:48:57;;;;;;;17.20;6.85;;;;;;;25.94;44.27;95438.44;5006624;28;20061;-83
2022/06/30 07:51:23;;;;;;;22.25;7.35;;;;;;;25.72;44.75;95436.81;5020941;28;20038;-83
2022/06/30 07:53:49;;;;;;;14.18;6.68;;;;;;;26.11;47.33;95438.19;5005602;28;20120;-85
2022/06/30 07:56:15;;;;;;;15.52;8.63;;;;;;;26.31;46.33;95430.19;5004191;28;20858;-85
2022/06/30 07:58:40;;;;;;;10.18;5.38;;;;;;;26.47;44.27;95429.03;4989373;28;20048;-84
2022/06/30 08:01:06;;;;;;;10.13;5.93;;;;;;;26.46;43.01;95432.91;5005842;28;20501;-85
2022/06/30 08:03:31;;;;;;;7.50;5.15;;;;;;;26.55;43.36;95424.91;5006359;28;20451;-85
2022/06/30 08:05:56;;;;;;;10.88;5.07;;;;;;;26.60;45.14;95430.38;4992957;28;20104;-84
2022/06/30 08:08:22;;;;;;;9.38;5.82;;;;;;;26.51;44.58;95430.16;5008663;28;20034;-85
2022/06/30 08:10:47;;;;;;;7.32;5.00;;;;;;;26.47;44.16;95433.75;4993238;28;20033;-84
2022/06/30 08:13:13;;;;;;;9.80;6.22;;;;;;;26.31;44.24;95435.69;5008294;28;20026;-85
2022/06/30 08:15:38;;;;;;;10.63;5.45;;;;;;;26.50;46.43;95427.69;5009755;28;20046;-84
2022/06/30 08:18:04;;;;;;;6.10;5.13;;;;;;;26.60;44.03;95424.88;5009575;28;20026;-85
2022/06/30 08:20:30;;;;;;;10.63;5.15;;;;;;;26.78;44.89;95431.69;5009419;28;20033;-84
2022/06/30 08:22:55;;;;;;;9.50;5.63;;;;;;;26.81;43.93;95424.00;5008254;28;20025;-84
2022/06/30 08:25:20;;;;;;;11.68;5.30;;;;;;;26.98;43.61;95416.22;5010177;28;20030;-83
2022/06/30 08:27:46;;;;;;;16.65;5.47;;;;;;;26.91;43.94;95416.50;4992554;28;20590;-83
2022/06/30 08:30:11;;;;;;;7.97;4.63;;;;;;;27.01;42.20;95420.34;5009549;28;20037;-83
2022/06/30 08:32:37;;;;;;;11.75;4.97;;;;;;;27.09;40.33;95425.25;4976073;28;20542;-83
2022/06/30 08:35:02;;;;;;;7.32;4.90;;;;;;;27.10;42.21;95426.09;5007812;28;20520;-84
2022/06/30 08:37:28;;;;;;;8.48;4.88;;;;;;;27.10;42.11;95417.84;5009256;28;20500;-85
2022/06/30 08:42:37;;;;;;;9.32;4.93;;;;;;;27.22;41.24;95429.31;5008719;28;20068;-84
2022/06/30 08:45:19;;;;;;;9.15;5.30;;;;;;;27.05;40.83;95426.13;5008478;28;20050;-84
2022/06/30 08:47:47;;;;;;;5.18;4.65;;;;;;;27.20;41.29;95422.44;4993726;28;20030;-85
2022/06/30 08:50:14;;;;;;;7.43;4.50;;;;;;;27.35;40.29;95427.88;5009156;28;20480;-85
2022/06/30 08:52:47;;;;;;;7.97;4.53;;;;;;;27.54;39.20;95427.19;5007427;28;20040;-85
2022/06/30 08:55:15;;;;;;;10.98;4.75;;;;;;;27.44;39.94;95425.31;5009216;28;20026;-85
2022/06/30 08:57:45;;;;;;;6.40;4.72;;;;;;;27.51;39.91;95427.75;5007754;28;20044;-85
2022/06/30 09:00:11;;;;;;;7.80;4.90;;;;;;;27.69;41.58;95429.03;5024794;28;20120;-84
2022/06/30 09:02:36;;;;;;;7.10;4.63;;;;;;;27.72;40.84;95425.72;5008121;28;20416;-84
2022/06/30 09:05:02;;;;;;;8.70;5.00;;;;;;;27.99;39.57;95424.38;5007356;28;20026;-83
2022/06/30 09:07:28;;;;;;;10.70;5.47;;;;;;;27.92;40.46;95421.16;5009877;28;20500;-84
2022/06/30 09:09:54;;;;;;;8.07;5.60;;;;;;;27.68;40.52;95419.09;5007080;28;20078;-83
2022/06/30 09:12:19;;;;;;;12.98;5.03;;;;;;;26.87;41.41;95420.13;5008673;28;20032;-84
2022/06/30 09:14:48;;;;;;;6.63;5.28;;;;;;;27.18;42.64;95414.47;4990215;28;20026;-85
2022/06/30 09:17:21;;;;;;;10.05;5.18;;;;;;;27.48;41.99;95409.88;5008222;28;20113;-84
2022/06/30 09:19:51;;;;;;;11.93;5.88;;;;;;;27.30;43.94;95410.53;5007751;28;20036;-85
2022/06/30 09:22:16;;;;;;;7.63;5.13;;;;;;;27.55;42.53;95411.50;5007180;28;20500;-84
2022/06/30 09:24:42;;;;;;;16.63;5.57;;;;;;;27.70;39.43;95405.88;5008227;28;20018;-83
2022/06/30 09:27:11;;;;;;;8.70;4.82;;;;;;;27.75;38.82;95397.56;5008353;28;20160;-85
2022/06/30 09:29:48;;;;;;;9.55;4.80;;;;;;;27.84;40.60;95396.97;5009632;28;20083;-85
2022/06/30 09:32:13;;;;;;;7.03;5.13;;;;;;;27.83;40.42;95396.13;5008501;28;20074;-86
2022/06/30 09:34:40;;;;;;;10.15;4.53;;;;;;;27.95;40.85;95397.69;5007593;28;20038;-83
2022/06/30 09:37:20;;;;;;;9.98;4.72;;;;;;;28.08;40.55;95397.03;5010261;28;20390;-85
2022/06/30 09:39:47;;;;;;;9.90;4.88;;;;;;;28.07;38.99;95395.34;5007788;28;20033;-85
2022/06/30 09:42:12;;;;;;;13.50;5.00;;;;;;;28.06;38.54;95387.38;4976583;28;20213;-84
2022/06/30 09:44:38;;;;;;;8.07;4.90;;;;;;;28.08;39.09;95396.19;5006975;28;20484;-86
2022/06/30 09:47:04;;;;;;;7.50;4.60;;;;;;;28.13;38.46;95387.88;5024862;28;20499;-85
2022/06/30 09:49:44;;;;;;;11.65;4.20;;;;;;;28.10;39.58;95388.47;5006709;28;20124;-84
2022/06/30 09:52:16;;;;;;;10.18;3.83;;;;;;;28.18;36.77;95387.00;4976548;28;20193;-85
2022/06/30 09:54:58;;;;;;;6.32;3.85;;;;;;;28.23;37.85;95390.50;5008908;28;20050;-85
2022/06/30 09:57:25;;;;;;;6.15;3.92;;;;;;;28.33;36.93;95389.63;4990221;28;20030;-85
2022/06/30 10:00:09;;;;;;;9.20;4.30;;;;;;;28.30;36.86;95392.09;5007691;28;20022;-84
2022/06/30 10:02:45;;;;;;;9.00;4.00;;;;;;;28.28;36.32;95389.63;5007862;28;20117;-85
2022/06/30 10:05:11;;;;;;;7.30;4.00;;;;;;;28.32;37.52;95389.91;5007195;28;20022;-85
2022/06/30 10:07:38;;;;;;;6.35;4.00;;;;;;;28.26;36.74;95381.66;4991049;28;20040;-85
2022/06/30 10:10:06;;;;;;;15.98;4.75;;;;;;;28.39;36.88;95379.34;5006308;28;20104;-85
2022/06/30 10:12:31;;;;;;;7.93;4.13;;;;;;;28.42;35.52;95373.25;5007552;28;20336;-84
2022/06/30 10:14:57;;;;;;;10.93;3.90;;;;;;;28.40;35.16;95375.47;4989644;28;20048;-84
2022/06/30 10:17:27;;;;;;;5.95;3.67;;;;;;;28.44;35.28;95368.25;5007575;28;20033;-84
2022/06/30 10:19:53;;;;;;;7.18;3.92;;;;;;;28.50;35.74;95363.50;4990124;28;20077;-85
2022/06/30 10:22:20;;;;;;;8.02;3.60;;;;;;;28.47;33.96;95370.41;4974387;28;20030;-85
2022/06/30 10:24:46;;;;;;;5.47;3.38;;;;;;;28.50;33.88;95367.06;4974452;28;20030;-84
2022/06/30 10:27:14;;;;;;;4.40;3.50;;;;;;;28.47;34.52;95366.84;5005210;28;20041;-84
2022/06/30 10:29:44;;;;;;;7.50;3.78;;;;;;;28.45;34.62;95361.63;5007013;28;20033;-85
2022/06/30 10:32:22;;;;;;;3.72;2.95;;;;;;;28.50;34.02;95363.50;4989571;28;20049;-85
2022/06/30 10:34:56;;;;;;;11.43;3.78;;;;;;;28.58;34.36;95359.28;5007372;28;20108;-85
2022/06/30 10:37:39;;;;;;;9.77;3.72;;;;;;;28.69;35.08;95355.28;4990405;28;20033;-84
2022/06/30 10:40:36;;;;;;;5.72;3.83;;;;;;;28.69;33.08;95349.75;4974150;28;20045;-83
2022/06/30 10:43:01;;;;;;;6.53;3.47;;;;;;;28.72;38.18;95360.19;5004907;28;20065;-85
2022/06/30 10:45:27;;;;;;;7.43;3.10;;;;;;;28.87;33.52;95363.88;5006790;28;20034;-84
2022/06/30 10:48:05;;;;;;;8.57;3.28;;;;;;;28.80;33.61;95357.88;5008053;28;20504;-84
2022/06/30 10:50:31;;;;;;;5.55;3.53;;;;;;;28.91;33.41;95345.59;5005904;28;20048;-85
2022/06/30 10:52:57;;;;;;;6.78;3.05;;;;;;;28.92;33.36;95333.44;5007094;28;20038;-84
2022/06/30 10:55:22;;;;;;;6.75;3.40;;;;;;;28.94;33.92;95342.22;4973894;28;20476;-84
2022/06/30 10:58:03;;;;;;;7.55;3.80;;;;;;;29.01;33.89;95344.66;4989152;28;20018;-85
2022/06/30 11:00:50;;;;;;;6.38;3.05;;;;;;;29.09;36.60;95343.16;5008054;28;20026;-84
2022/06/30 11:03:50;;;;;;;7.70;3.42;;;;;;;29.09;36.57;95334.88;5006468;28;20144;-85
2022/06/30 11:06:16;;;;;;;6.93;3.05;;;;;;;29.18;33.14;95338.59;4994433;28;20108;-85
2022/06/30 11:08:52;;;;;;;3.80;2.45;;;;;;;29.21;31.03;95329.72;5007449;28;20026;-84
2022/06/30 11:11:23;;;;;;;7.50;2.78;;;;;;;29.20;32.03;95330.84;5005597;28;20105;-85
2022/06/30 11:14:02;;;;;;;4.70;2.42;;;;;;;29.36;30.59;95322.31;5007487;28;20144;-85
2022/06/30 11:16:28;;;;;;;3.83;2.15;;;;;;;29.41;30.32;95308.41;5005131;28;20030;-84
2022/06/30 11:18:53;;;;;;;3.33;2.30;;;;;;;29.39;30.39;95320.91;5005326;28;20029;-84
2022/06/30 11:21:19;;;;;;;5.57;2.38;;;;;;;29.47;30.79;95312.72;4989388;28;20053;-84
2022/06/30 11:23:46;;;;;;;3.55;2.10;;;;;;;29.46;29.44;95313.03;5006093;28;20037;-83
2022/06/30 11:28:57;;;;;;;4.40;2.53;;;;;;;29.52;28.96;95302.75;5004840;28;20073;-84
2022/06/30 11:31:31;;;;;;;3.95;2.03;;;;;;;29.59;28.99;95301.25;5005338;28;20045;-84
2022/06/30 11:34:08;;;;;;;3.80;2.33;;;;;;;29.61;29.75;95303.72;5006720;28;20037;-84
2022/06/30 11:36:34;;;;;;;5.45;2.40;;;;;;;29.57;29.25;95310.91;5004410;28;20416;-84
2022/06/30 11:39:03;;;;;;;7.75;2.30;;;;;;;29.59;29.58;95300.41;5005680;28;20026;-84
2022/06/30 11:44:13;;;;;;;4.68;2.25;;;;;;;29.83;27.39;95302.22;5005932;28;20439;-84
2022/06/30 11:47:04;;;;;;;5.28;1.95;;;;;;;29.96;27.59;95295.88;5004903;28;20501;-85
2022/06/30 11:49:41;;;;;;;3.45;2.08;;;;;;;29.95;27.30;95297.03;5004222;28;20044;-84
2022/06/30 11:52:13;;;;;;;5.85;1.80;;;;;;;29.95;26.46;95294.25;5007062;28;20036;-84
2022/06/30 11:54:39;;;;;;;;;;;;;;;30.10;27.77;95290.34;5005907;28;20030;-84